createdAt,value
2023-06-10T00:00:52.169Z,15.05
2023-06-10T00:01:52.145Z,15.03
2023-06-10T00:02:52.227Z,15.01
2023-06-10T00:03:52.297Z,15.01
2023-06-10T00:04:52.284Z,15.01
2023-06-10T00:05:52.084Z,15.00
2023-06-10T00:06:52.060Z,14.98
2023-06-10T00:07:52.083Z,14.96
2023-06-10T00:08:52.044Z,14.95
2023-06-10T00:09:52.035Z,14.94
2023-06-10T00:10:52.010Z,14.92
2023-06-10T00:11:52.002Z,14.91
2023-06-10T00:12:51.993Z,14.92
2023-06-10T00:13:51.991Z,14.94
2023-06-10T00:14:51.955Z,14.95
2023-06-10T00:15:51.959Z,14.95
2023-06-10T00:16:51.922Z,14.95
2023-06-10T00:17:51.923Z,14.96
2023-06-10T00:18:51.913Z,14.96
2023-06-10T00:19:51.876Z,14.94
2023-06-10T00:20:51.883Z,14.92
2023-06-10T00:21:51.858Z,14.90
2023-06-10T00:22:51.841Z,14.88
2023-06-10T00:23:51.877Z,14.87
2023-06-10T00:24:51.818Z,14.85
2023-06-10T00:25:51.801Z,14.83
2023-06-10T00:26:51.815Z,14.82
2023-06-10T00:27:51.768Z,14.81
2023-06-10T00:28:51.746Z,14.79
2023-06-10T00:29:51.734Z,14.77
2023-06-10T00:30:51.716Z,14.75
2023-06-10T00:31:51.752Z,14.72
2023-06-10T00:32:51.789Z,14.70
2023-06-10T00:33:51.736Z,14.68
2023-06-10T00:34:51.687Z,14.66
2023-06-10T00:35:51.665Z,14.65
2023-06-10T00:36:51.645Z,14.63
2023-06-10T00:37:51.636Z,14.62
2023-06-10T00:38:51.629Z,14.61
2023-06-10T00:39:51.608Z,14.60
2023-06-10T00:40:51.582Z,14.59
2023-06-10T00:41:51.600Z,14.57
2023-06-10T00:42:51.572Z,14.55
2023-06-10T00:43:51.549Z,14.53
2023-06-10T00:44:51.537Z,14.52
2023-06-10T00:45:51.518Z,14.50
2023-06-10T00:46:51.505Z,14.49
2023-06-10T00:47:51.523Z,14.47
2023-06-10T00:48:51.489Z,14.45
2023-06-10T00:49:51.475Z,14.43
2023-06-10T00:50:51.448Z,14.41
2023-06-10T00:51:51.451Z,14.40
2023-06-10T00:52:52.807Z,14.38
2023-06-10T00:53:51.449Z,14.36
2023-06-10T00:54:51.417Z,14.35
2023-06-10T00:55:51.382Z,14.35
2023-06-10T00:56:51.392Z,14.35
2023-06-10T00:57:51.356Z,14.34
2023-06-10T00:58:51.324Z,14.32
2023-06-10T00:59:51.329Z,14.31
2023-06-10T01:00:51.365Z,14.30
2023-06-10T01:01:51.315Z,14.29
2023-06-10T01:02:51.331Z,14.28
2023-06-10T01:03:51.275Z,14.26
2023-06-10T01:04:51.256Z,14.24
2023-06-10T01:05:51.262Z,14.22
2023-06-10T01:06:51.221Z,14.21
2023-06-10T01:07:51.222Z,14.20
2023-06-10T01:08:51.190Z,14.20
2023-06-10T01:09:51.185Z,14.19
2023-06-10T01:10:51.177Z,14.19
2023-06-10T01:11:51.161Z,14.20
2023-06-10T01:12:50.940Z,14.20
2023-06-10T01:13:51.136Z,14.19
2023-06-10T01:14:51.112Z,14.20
2023-06-10T01:15:51.116Z,14.21
2023-06-10T01:16:51.147Z,14.22
2023-06-10T01:17:51.141Z,14.23
2023-06-10T01:18:51.051Z,14.22
2023-06-10T01:19:51.050Z,14.23
2023-06-10T01:20:52.115Z,14.23
2023-06-10T01:21:50.553Z,14.23
2023-06-10T01:22:50.999Z,14.23
2023-06-10T01:23:51.053Z,14.24
2023-06-10T01:24:50.985Z,14.25
2023-06-10T01:25:50.966Z,14.26
2023-06-10T01:26:50.945Z,14.27
2023-06-10T01:27:50.935Z,14.28
2023-06-10T01:28:50.943Z,14.29
2023-06-10T01:29:50.922Z,14.29
2023-06-10T01:30:50.904Z,14.30
2023-06-10T01:31:51.001Z,14.37
2023-06-10T01:32:50.885Z,14.44
2023-06-10T01:33:50.873Z,14.53
2023-06-10T01:34:50.357Z,14.59
2023-06-10T01:35:50.824Z,14.63
2023-06-10T01:36:50.849Z,14.68
2023-06-10T01:37:50.816Z,14.72
2023-06-10T01:38:50.798Z,14.79
2023-06-10T01:39:50.873Z,14.84
2023-06-10T01:40:50.758Z,14.92
2023-06-10T01:41:50.751Z,14.98
2023-06-10T01:42:50.725Z,15.03
2023-06-10T01:43:50.728Z,15.08
2023-06-10T01:44:50.717Z,15.11
2023-06-10T01:45:50.706Z,15.12
2023-06-10T01:46:50.680Z,15.14
2023-06-10T01:47:50.968Z,15.17
2023-06-10T01:48:50.653Z,15.18
2023-06-10T01:49:50.643Z,15.17
2023-06-10T01:50:50.608Z,15.15
2023-06-10T01:51:50.633Z,15.12
2023-06-10T01:52:50.588Z,15.09
2023-06-10T01:53:50.603Z,15.06
2023-06-10T01:54:50.621Z,15.02
2023-06-10T01:55:50.579Z,14.98
2023-06-10T01:56:50.587Z,14.94
2023-06-10T01:57:50.601Z,14.90
2023-06-10T01:58:50.603Z,14.86
2023-06-10T01:59:50.502Z,14.81
2023-06-10T02:00:50.516Z,14.76
2023-06-10T02:01:50.470Z,14.72
2023-06-10T02:02:50.552Z,14.68
2023-06-10T02:03:50.471Z,14.64
2023-06-10T02:04:50.417Z,14.61
2023-06-10T02:05:50.416Z,14.58
2023-06-10T02:06:50.412Z,14.55
2023-06-10T02:07:50.400Z,14.51
2023-06-10T02:08:50.382Z,14.47
2023-06-10T02:09:50.365Z,14.44
2023-06-10T02:10:50.336Z,14.41
2023-06-10T02:11:50.327Z,14.38
2023-06-10T02:12:50.315Z,14.35
2023-06-10T02:13:50.289Z,14.32
2023-06-10T02:14:50.294Z,14.31
2023-06-10T02:15:50.265Z,14.29
2023-06-10T02:16:50.378Z,14.28
2023-06-10T02:17:50.335Z,14.26
2023-06-10T02:18:49.778Z,14.25
2023-06-10T02:19:50.212Z,14.24
2023-06-10T02:20:50.188Z,14.22
2023-06-10T02:21:50.181Z,14.19
2023-06-10T02:22:50.182Z,14.16
2023-06-10T02:23:50.153Z,14.14
2023-06-10T02:24:50.148Z,14.12
2023-06-10T02:25:50.128Z,14.10
2023-06-10T02:26:50.129Z,14.09
2023-06-10T02:27:50.095Z,14.09
2023-06-10T02:28:50.075Z,14.10
2023-06-10T02:29:49.133Z,14.11
2023-06-10T02:30:50.072Z,14.12
2023-06-10T02:31:50.117Z,14.14
2023-06-10T02:32:50.034Z,14.15
2023-06-10T02:33:50.034Z,14.16
2023-06-10T02:34:50.012Z,14.16
2023-06-10T02:35:49.987Z,14.18
2023-06-10T02:36:48.344Z,14.19
2023-06-10T02:37:49.970Z,14.21
2023-06-10T02:38:49.946Z,14.22
2023-06-10T02:39:49.917Z,14.24
2023-06-10T02:40:49.926Z,14.24
2023-06-10T02:41:49.900Z,14.24
2023-06-10T02:42:49.883Z,14.23
2023-06-10T02:43:49.896Z,14.23
2023-06-10T02:44:47.983Z,14.23
2023-06-10T02:45:49.956Z,14.23
2023-06-10T02:46:49.880Z,14.23
2023-06-10T02:47:49.897Z,14.23
2023-06-10T02:48:49.816Z,14.24
2023-06-10T02:49:49.807Z,14.25
2023-06-10T02:50:49.796Z,14.26
2023-06-10T02:51:49.788Z,14.29
2023-06-10T02:52:49.761Z,14.30
2023-06-10T02:53:49.767Z,14.32
2023-06-10T02:54:49.750Z,14.33
2023-06-10T02:55:49.727Z,14.34
2023-06-10T02:56:49.720Z,14.35
2023-06-10T02:57:49.706Z,14.35
2023-06-10T02:58:49.671Z,14.36
2023-06-10T02:59:49.671Z,14.39
2023-06-10T03:00:49.654Z,14.41
2023-06-10T03:01:49.692Z,14.43
2023-06-10T03:02:49.679Z,14.45
2023-06-10T03:03:49.636Z,14.47
2023-06-10T03:04:49.588Z,14.48
2023-06-10T03:05:49.596Z,14.48
2023-06-10T03:06:49.553Z,14.48
2023-06-10T03:07:49.541Z,14.48
2023-06-10T03:08:49.548Z,14.48
2023-06-10T03:09:49.524Z,14.50
2023-06-10T03:10:49.527Z,14.55
2023-06-10T03:11:49.491Z,14.58
2023-06-10T03:12:49.489Z,14.60
2023-06-10T03:13:49.479Z,14.60
2023-06-10T03:14:49.534Z,14.58
2023-06-10T03:15:49.524Z,14.55
2023-06-10T03:16:49.433Z,14.52
2023-06-10T03:17:49.450Z,14.49
2023-06-10T03:18:49.415Z,14.51
2023-06-10T03:19:49.549Z,14.54
2023-06-10T03:20:49.372Z,14.57
2023-06-10T03:21:49.348Z,14.59
2023-06-10T03:22:49.339Z,14.61
2023-06-10T03:23:49.381Z,14.62
2023-06-10T03:24:49.354Z,14.62
2023-06-10T03:25:49.285Z,14.63
2023-06-10T03:26:49.285Z,14.62
2023-06-10T03:27:49.268Z,14.60
2023-06-10T03:28:49.263Z,14.64
2023-06-10T03:29:49.264Z,14.65
2023-06-10T03:30:49.231Z,14.66
2023-06-10T03:31:49.313Z,14.68
2023-06-10T03:32:49.312Z,14.70
2023-06-10T03:33:49.198Z,14.77
2023-06-10T03:34:49.173Z,14.86
2023-06-10T03:35:49.155Z,14.98
2023-06-10T03:36:49.143Z,15.08
2023-06-10T03:37:49.148Z,15.18
2023-06-10T03:38:49.125Z,15.30
2023-06-10T03:39:49.097Z,15.44
2023-06-10T03:40:49.102Z,15.59
2023-06-10T03:41:49.079Z,15.71
2023-06-10T03:42:49.059Z,15.79
2023-06-10T03:43:49.050Z,15.93
2023-06-10T03:44:49.019Z,16.14
2023-06-10T03:45:49.107Z,16.28
2023-06-10T03:46:48.994Z,16.42
2023-06-10T03:47:49.104Z,16.56
2023-06-10T03:48:48.970Z,16.68
2023-06-10T03:49:47.613Z,16.78
2023-06-10T03:50:48.951Z,16.88
2023-06-10T03:51:48.947Z,17.01
2023-06-10T03:52:48.942Z,17.12
2023-06-10T03:53:48.908Z,17.21
2023-06-10T03:54:48.886Z,17.28
2023-06-10T03:55:48.879Z,17.33
2023-06-10T03:56:48.870Z,17.38
2023-06-10T03:57:48.861Z,17.44
2023-06-10T03:58:48.878Z,17.49
2023-06-10T03:59:48.847Z,17.56
2023-06-10T04:00:48.816Z,17.64
2023-06-10T04:01:48.894Z,17.69
2023-06-10T04:02:48.918Z,17.72
2023-06-10T04:03:48.785Z,17.76
2023-06-10T04:04:48.754Z,17.79
2023-06-10T04:05:48.774Z,17.83
2023-06-10T04:06:48.744Z,17.86
2023-06-10T04:07:48.716Z,17.87
2023-06-10T04:08:48.706Z,17.88
2023-06-10T04:09:48.689Z,17.88
2023-06-10T04:10:48.659Z,17.88
2023-06-10T04:11:48.674Z,17.90
2023-06-10T04:12:48.646Z,17.94
2023-06-10T04:13:48.635Z,17.97
2023-06-10T04:14:48.637Z,17.98
2023-06-10T04:15:48.612Z,17.98
2023-06-10T04:16:48.621Z,17.96
2023-06-10T04:17:48.612Z,17.92
2023-06-10T04:18:48.585Z,17.86
2023-06-10T04:19:48.545Z,17.77
2023-06-10T04:20:48.543Z,17.70
2023-06-10T04:21:48.516Z,17.62
2023-06-10T04:22:48.498Z,17.55
2023-06-10T04:23:48.509Z,17.50
2023-06-10T04:24:48.496Z,17.45
2023-06-10T04:25:48.486Z,17.38
2023-06-10T04:26:48.441Z,17.29
2023-06-10T04:27:48.425Z,17.22
2023-06-10T04:28:48.419Z,17.15
2023-06-10T04:29:48.421Z,17.07
2023-06-10T04:30:48.409Z,16.98
2023-06-10T04:31:48.401Z,16.91
2023-06-10T04:32:48.405Z,16.84
2023-06-10T04:33:48.356Z,16.78
2023-06-10T04:34:48.345Z,16.72
2023-06-10T04:35:48.324Z,16.68
2023-06-10T04:36:48.313Z,16.65
2023-06-10T04:37:48.295Z,16.62
2023-06-10T04:38:48.278Z,16.59
2023-06-10T04:39:48.276Z,16.57
2023-06-10T04:40:48.264Z,16.56
2023-06-10T04:41:48.257Z,16.55
2023-06-10T04:42:48.223Z,16.57
2023-06-10T04:43:48.211Z,16.58
2023-06-10T04:44:48.200Z,16.60
2023-06-10T04:45:48.185Z,16.63
2023-06-10T04:46:48.220Z,16.67
2023-06-10T04:47:48.229Z,16.74
2023-06-10T04:48:48.154Z,16.84
2023-06-10T04:49:48.140Z,16.94
2023-06-10T04:50:48.103Z,17.03
2023-06-10T04:51:48.098Z,17.09
2023-06-10T04:52:48.067Z,17.16
2023-06-10T04:53:48.056Z,17.23
2023-06-10T04:54:48.058Z,17.31
2023-06-10T04:55:48.040Z,17.39
2023-06-10T04:56:48.048Z,17.48
2023-06-10T04:57:49.705Z,17.58
2023-06-10T04:58:48.017Z,17.70
2023-06-10T04:59:47.996Z,17.81
2023-06-10T05:00:47.976Z,17.91
2023-06-10T05:01:48.002Z,18.04
2023-06-10T05:02:47.972Z,18.18
2023-06-10T05:03:47.975Z,18.31
2023-06-10T05:04:47.905Z,18.42
2023-06-10T05:05:47.899Z,18.54
2023-06-10T05:06:47.871Z,18.67
2023-06-10T05:07:47.881Z,18.78
2023-06-10T05:08:47.876Z,18.88
2023-06-10T05:09:47.844Z,18.97
2023-06-10T05:10:47.822Z,19.13
2023-06-10T05:11:47.823Z,19.28
2023-06-10T05:12:47.826Z,19.38
2023-06-10T05:13:47.800Z,19.47
2023-06-10T05:14:47.789Z,19.60
2023-06-10T05:15:47.756Z,19.73
2023-06-10T05:16:47.814Z,19.86
2023-06-10T05:17:47.794Z,19.97
2023-06-10T05:18:47.718Z,20.06
2023-06-10T05:19:47.714Z,20.17
2023-06-10T05:20:47.700Z,20.30
2023-06-10T05:21:47.672Z,20.46
2023-06-10T05:22:47.679Z,20.57
2023-06-10T05:23:47.656Z,20.69
2023-06-10T05:24:47.672Z,20.72
2023-06-10T05:25:47.616Z,20.70
2023-06-10T05:26:47.620Z,20.72
2023-06-10T05:27:47.614Z,20.78
2023-06-10T05:28:47.587Z,20.91
2023-06-10T05:29:47.564Z,21.07
2023-06-10T05:30:47.558Z,21.19
2023-06-10T05:31:47.612Z,21.25
2023-06-10T05:32:47.549Z,21.38
2023-06-10T05:33:47.509Z,21.50
2023-06-10T05:34:47.523Z,21.62
2023-06-10T05:35:47.482Z,21.72
2023-06-10T05:36:47.475Z,21.79
2023-06-10T05:37:47.477Z,21.91
2023-06-10T05:38:47.451Z,21.99
2023-06-10T05:39:47.422Z,22.02
2023-06-10T05:40:47.421Z,22.01
2023-06-10T05:41:47.405Z,22.14
2023-06-10T05:42:47.395Z,22.25
2023-06-10T05:43:47.618Z,22.38
2023-06-10T05:44:47.366Z,22.55
2023-06-10T05:45:47.384Z,22.60
2023-06-10T05:46:47.328Z,22.57
2023-06-10T05:47:47.347Z,22.35
2023-06-10T05:48:45.374Z,22.01
2023-06-10T05:49:47.276Z,21.63
2023-06-10T05:50:47.264Z,21.33
2023-06-10T05:51:47.266Z,21.11
2023-06-10T05:52:47.259Z,20.95
2023-06-10T05:53:47.232Z,20.74
2023-06-10T05:54:47.241Z,20.59
2023-06-10T05:55:47.211Z,20.48
2023-06-10T05:56:47.192Z,20.36
2023-06-10T05:57:47.164Z,20.28
2023-06-10T05:58:47.163Z,20.24
2023-06-10T05:59:47.155Z,20.20
2023-06-10T06:00:47.160Z,20.18
2023-06-10T06:01:47.132Z,20.18
2023-06-10T06:02:47.158Z,20.19
2023-06-10T06:03:47.221Z,20.20
2023-06-10T06:04:47.090Z,20.20
2023-06-10T06:05:47.080Z,20.22
2023-06-10T06:06:47.059Z,20.21
2023-06-10T06:07:47.038Z,20.25
2023-06-10T06:08:47.027Z,20.28
2023-06-10T06:09:47.019Z,20.32
2023-06-10T06:10:47.054Z,20.45
2023-06-10T06:11:45.702Z,20.72
2023-06-10T06:12:46.959Z,21.14
2023-06-10T06:13:46.953Z,21.66
2023-06-10T06:14:46.946Z,22.16
2023-06-10T06:15:46.971Z,22.68
2023-06-10T06:16:46.922Z,23.21
2023-06-10T06:17:46.955Z,23.63
2023-06-10T06:18:46.385Z,23.91
2023-06-10T06:19:46.864Z,24.27
2023-06-10T06:20:46.862Z,24.50
2023-06-10T06:21:46.849Z,24.65
2023-06-10T06:22:46.829Z,24.75
2023-06-10T06:23:46.865Z,24.87
2023-06-10T06:24:46.884Z,24.93
2023-06-10T06:25:46.796Z,25.04
2023-06-10T06:26:46.776Z,25.20
2023-06-10T06:27:46.749Z,25.31
2023-06-10T06:28:46.747Z,25.47
2023-06-10T06:29:46.853Z,25.83
2023-06-10T06:30:46.743Z,25.93
2023-06-10T06:31:46.775Z,26.07
2023-06-10T06:32:46.749Z,26.31
2023-06-10T06:33:46.700Z,26.49
2023-06-10T06:34:46.216Z,26.55
2023-06-10T06:35:44.961Z,26.76
2023-06-10T06:36:50.177Z,26.84
2023-06-10T06:37:48.948Z,26.82
2023-06-10T06:38:46.627Z,26.92
2023-06-10T06:39:46.607Z,26.85
2023-06-10T06:40:46.845Z,26.78
2023-06-10T06:41:46.795Z,26.60
2023-06-10T06:42:46.564Z,26.64
2023-06-10T06:43:46.528Z,26.86
2023-06-10T06:44:46.562Z,27.03
2023-06-10T06:45:46.507Z,26.93
2023-06-10T06:46:46.501Z,26.86
2023-06-10T06:47:46.698Z,26.81
2023-06-10T06:48:46.588Z,26.80
2023-06-10T06:49:46.477Z,26.71
2023-06-10T06:50:46.443Z,26.98
2023-06-10T06:51:46.472Z,27.24
2023-06-10T06:52:46.425Z,27.43
2023-06-10T06:53:46.410Z,27.33
2023-06-10T06:54:46.381Z,27.25
2023-06-10T06:55:46.385Z,27.16
2023-06-10T06:56:46.360Z,27.08
2023-06-10T06:57:46.349Z,27.23
2023-06-10T06:58:46.350Z,27.33
2023-06-10T06:59:46.316Z,27.39
2023-06-10T07:00:46.341Z,27.45
2023-06-10T07:01:44.386Z,27.38
2023-06-10T07:02:46.317Z,27.52
2023-06-10T07:03:46.289Z,27.66
2023-06-10T07:04:45.999Z,27.81
2023-06-10T07:05:46.314Z,27.87
2023-06-10T07:06:46.243Z,28.01
2023-06-10T07:07:44.435Z,28.01
2023-06-10T07:08:46.227Z,27.91
2023-06-10T07:09:46.192Z,28.04
2023-06-10T07:10:46.175Z,28.09
2023-06-10T07:11:51.907Z,28.21
2023-06-10T07:12:46.195Z,28.29
2023-06-10T07:13:46.147Z,28.45
2023-06-10T07:14:46.209Z,28.40
2023-06-10T07:15:46.325Z,28.49
2023-06-10T07:16:46.521Z,28.68
2023-06-10T07:17:46.162Z,28.90
2023-06-10T07:18:46.070Z,28.83
2023-06-10T07:19:45.545Z,28.78
2023-06-10T07:20:46.043Z,28.60
2023-06-10T07:21:46.034Z,28.49
2023-06-10T07:22:46.034Z,28.63
2023-06-10T07:23:46.121Z,28.82
2023-06-10T07:24:45.974Z,28.89
2023-06-10T07:25:46.003Z,29.26
2023-06-10T07:26:46.423Z,29.55
2023-06-10T07:27:45.980Z,29.84
2023-06-10T07:28:45.951Z,29.91
2023-06-10T07:29:43.998Z,30.06
2023-06-10T07:30:45.937Z,30.23
2023-06-10T07:31:45.907Z,30.40
2023-06-10T07:32:45.960Z,30.32
2023-06-10T07:33:45.877Z,30.37
2023-06-10T07:34:45.855Z,30.59
2023-06-10T07:35:45.844Z,30.58
2023-06-10T07:36:45.891Z,30.52
2023-06-10T07:37:45.816Z,30.47
2023-06-10T07:38:45.813Z,30.47
2023-06-10T07:39:45.800Z,30.44
2023-06-10T07:40:45.761Z,30.32
2023-06-10T07:41:45.781Z,30.22
2023-06-10T07:42:45.750Z,30.26
2023-06-10T07:43:45.731Z,30.15
2023-06-10T07:44:45.742Z,30.09
2023-06-10T07:45:45.710Z,30.12
2023-06-10T07:46:45.776Z,30.03
2023-06-10T07:47:45.751Z,29.84
2023-06-10T07:48:45.664Z,29.71
2023-06-10T07:49:45.671Z,29.80
2023-06-10T07:50:45.674Z,29.86
2023-06-10T07:51:44.785Z,30.00
2023-06-10T07:52:45.610Z,30.20
2023-06-10T07:53:45.590Z,30.24
2023-06-10T07:54:45.603Z,30.31
2023-06-10T07:55:45.616Z,30.43
2023-06-10T07:56:45.564Z,30.49
2023-06-10T07:57:45.561Z,30.90
2023-06-10T07:58:45.540Z,31.10
2023-06-10T07:59:45.531Z,31.26
2023-06-10T08:00:45.531Z,31.43
2023-06-10T08:01:45.503Z,31.53
2023-06-10T08:02:45.529Z,31.52
2023-06-10T08:03:45.735Z,31.41
2023-06-10T08:04:45.512Z,31.42
2023-06-10T08:05:45.462Z,31.51
2023-06-10T08:06:45.512Z,31.70
2023-06-10T08:07:45.441Z,31.64
2023-06-10T08:08:45.478Z,31.28
2023-06-10T08:09:45.534Z,31.07
2023-06-10T08:10:45.481Z,31.00
2023-06-10T08:11:45.454Z,31.11
2023-06-10T08:12:45.350Z,31.10
2023-06-10T08:13:45.363Z,31.23
2023-06-10T08:14:45.355Z,31.54
2023-06-10T08:15:45.347Z,31.47
2023-06-10T08:16:45.467Z,31.56
2023-06-10T08:17:45.309Z,31.58
2023-06-10T08:18:45.302Z,31.33
2023-06-10T08:19:45.290Z,31.54
2023-06-10T08:20:44.770Z,32.04
2023-06-10T08:21:45.240Z,32.42
2023-06-10T08:22:45.235Z,32.68
2023-06-10T08:23:45.281Z,32.40
2023-06-10T08:24:48.402Z,32.10
2023-06-10T08:25:43.859Z,32.08
2023-06-10T08:26:45.198Z,31.93
2023-06-10T08:27:45.216Z,31.56
2023-06-10T08:28:43.862Z,31.30
2023-06-10T08:29:45.147Z,31.40
2023-06-10T08:30:45.142Z,31.65
2023-06-10T08:31:45.227Z,32.01
2023-06-10T08:32:45.132Z,32.08
2023-06-10T08:33:45.106Z,32.14
2023-06-10T08:34:45.159Z,32.21
2023-06-10T08:35:45.078Z,32.59
2023-06-10T08:36:43.101Z,32.95
2023-06-10T08:37:45.074Z,33.16
2023-06-10T08:38:45.095Z,33.25
2023-06-10T08:39:45.082Z,33.50
2023-06-10T08:40:44.284Z,33.59
2023-06-10T08:41:45.031Z,33.52
2023-06-10T08:42:46.123Z,33.56
2023-06-10T08:43:44.976Z,33.67
2023-06-10T08:44:44.947Z,33.85
2023-06-10T08:45:45.093Z,33.52
2023-06-10T08:46:44.946Z,33.27
2023-06-10T08:47:44.984Z,33.32
2023-06-10T08:48:44.964Z,33.30
2023-06-10T08:49:44.901Z,33.30
2023-06-10T08:50:44.884Z,33.40
2023-06-10T08:51:42.969Z,33.59
2023-06-10T08:52:44.870Z,33.54
2023-06-10T08:53:44.835Z,33.41
2023-06-10T08:54:44.844Z,33.35
2023-06-10T08:55:44.814Z,33.24
2023-06-10T08:56:44.812Z,33.00
2023-06-10T08:57:42.917Z,32.12
2023-06-10T08:58:44.793Z,31.33
2023-06-10T08:59:44.765Z,30.79
2023-06-10T09:00:44.752Z,30.79
2023-06-10T09:01:44.777Z,31.17
2023-06-10T09:02:44.777Z,31.81
2023-06-10T09:03:45.034Z,31.96
2023-06-10T09:04:44.701Z,32.54
2023-06-10T09:05:44.697Z,33.08
2023-06-10T09:06:44.694Z,33.70
2023-06-10T09:07:44.677Z,33.83
2023-06-10T09:08:44.667Z,34.18
2023-06-10T09:09:44.659Z,34.30
2023-06-10T09:10:44.637Z,34.10
2023-06-10T09:11:44.634Z,34.15
2023-06-10T09:12:44.614Z,34.11
2023-06-10T09:13:44.595Z,34.43
2023-06-10T09:14:44.589Z,34.35
2023-06-10T09:15:44.577Z,34.00
2023-06-10T09:16:44.596Z,33.95
2023-06-10T09:17:44.577Z,33.99
2023-06-10T09:18:44.551Z,33.91
2023-06-10T09:19:44.535Z,33.95
2023-06-10T09:20:43.997Z,34.11
2023-06-10T09:21:42.887Z,34.12
2023-06-10T09:22:44.920Z,33.99
2023-06-10T09:23:44.895Z,33.24
2023-06-10T09:24:44.512Z,32.33
2023-06-10T09:25:43.235Z,31.48
2023-06-10T09:26:44.654Z,31.21
2023-06-10T09:27:44.436Z,31.22
2023-06-10T09:28:44.437Z,30.75
2023-06-10T09:29:44.438Z,30.36
2023-06-10T09:30:44.404Z,30.11
2023-06-10T09:31:44.482Z,30.56
2023-06-10T09:32:44.459Z,30.94
2023-06-10T09:33:44.381Z,30.56
2023-06-10T09:34:44.682Z,30.04
2023-06-10T09:35:44.550Z,30.04
2023-06-10T09:36:44.323Z,30.55
2023-06-10T09:37:44.302Z,31.25
2023-06-10T09:38:43.718Z,31.24
2023-06-10T09:39:44.301Z,31.10
2023-06-10T09:40:44.275Z,31.46
2023-06-10T09:41:44.332Z,31.65
2023-06-10T09:42:42.849Z,31.39
2023-06-10T09:43:44.238Z,30.60
2023-06-10T09:44:43.683Z,30.12
2023-06-10T09:45:44.229Z,30.60
2023-06-10T09:46:45.149Z,31.35
2023-06-10T09:47:44.341Z,31.30
2023-06-10T09:48:43.717Z,31.12
2023-06-10T09:49:42.752Z,30.67
2023-06-10T09:50:44.221Z,30.66
2023-06-10T09:51:44.144Z,30.90
2023-06-10T09:52:42.536Z,30.77
2023-06-10T09:53:42.301Z,30.53
2023-06-10T09:54:44.366Z,30.30
2023-06-10T09:55:44.080Z,29.92
2023-06-10T09:56:43.859Z,29.59
2023-06-10T09:57:42.740Z,30.10
2023-06-10T09:58:44.075Z,30.22
2023-06-10T09:59:44.204Z,30.06
2023-06-10T10:00:44.019Z,29.65
2023-06-10T10:01:44.131Z,29.64
2023-06-10T10:02:44.004Z,29.78
2023-06-10T10:03:43.987Z,29.73
2023-06-10T10:04:44.009Z,29.70
2023-06-10T10:05:44.003Z,30.26
2023-06-10T10:06:42.472Z,30.64
2023-06-10T10:07:44.018Z,30.51
2023-06-10T10:08:43.996Z,30.73
2023-06-10T10:09:44.024Z,30.78
2023-06-10T10:10:43.923Z,30.60
2023-06-10T10:11:42.856Z,30.93
2023-06-10T10:12:42.206Z,31.03
2023-06-10T10:13:43.954Z,30.65
2023-06-10T10:14:43.385Z,30.06
2023-06-10T10:15:43.909Z,30.02
2023-06-10T10:16:43.861Z,29.57
2023-06-10T10:17:43.836Z,29.48
2023-06-10T10:18:43.821Z,29.96
2023-06-10T10:19:46.311Z,30.51
2023-06-10T10:20:43.745Z,31.26
2023-06-10T10:21:43.028Z,31.83
2023-06-10T10:22:43.777Z,31.42
2023-06-10T10:23:43.819Z,30.67
2023-06-10T10:24:43.722Z,30.07
2023-06-10T10:25:43.767Z,29.57
2023-06-10T10:26:41.758Z,29.30
2023-06-10T10:27:43.746Z,29.00
2023-06-10T10:28:43.697Z,28.71
2023-06-10T10:29:43.664Z,28.61
2023-06-10T10:30:43.663Z,29.25
2023-06-10T10:31:43.614Z,30.00
2023-06-10T10:32:43.665Z,30.23
2023-06-10T10:33:43.676Z,30.06
2023-06-10T10:34:43.564Z,30.53
2023-06-10T10:35:43.542Z,31.19
2023-06-10T10:36:43.600Z,31.10
2023-06-10T10:37:43.548Z,31.64
2023-06-10T10:38:43.525Z,31.76
2023-06-10T10:39:43.501Z,31.74
2023-06-10T10:40:43.476Z,31.57
2023-06-10T10:41:43.497Z,31.43
2023-06-10T10:42:42.976Z,31.84
2023-06-10T10:43:43.491Z,32.22
2023-06-10T10:44:43.421Z,32.58
2023-06-10T10:45:41.681Z,33.02
2023-06-10T10:46:43.615Z,33.37
2023-06-10T10:47:42.849Z,33.13
2023-06-10T10:48:43.405Z,32.59
2023-06-10T10:49:43.421Z,32.46
2023-06-10T10:50:42.033Z,32.59
2023-06-10T10:51:43.368Z,32.83
2023-06-10T10:52:41.567Z,32.90
2023-06-10T10:53:43.338Z,32.80
2023-06-10T10:54:43.303Z,32.89
2023-06-10T10:55:43.311Z,32.92
2023-06-10T10:56:43.652Z,33.18
2023-06-10T10:57:43.275Z,33.23
2023-06-10T10:58:43.280Z,33.16
2023-06-10T10:59:43.249Z,33.00
2023-06-10T11:00:41.422Z,33.07
2023-06-10T11:01:43.302Z,33.36
2023-06-10T11:02:42.817Z,33.69
2023-06-10T11:03:43.290Z,34.12
2023-06-10T11:04:43.318Z,34.53
2023-06-10T11:05:43.307Z,33.59
2023-06-10T11:06:43.164Z,32.34
2023-06-10T11:07:43.156Z,31.52
2023-06-10T11:08:43.241Z,31.60
2023-06-10T11:09:43.121Z,31.90
2023-06-10T11:10:43.102Z,31.81
2023-06-10T11:11:43.119Z,31.97
2023-06-10T11:12:43.085Z,32.15
2023-06-10T11:13:43.091Z,32.19
2023-06-10T11:14:43.062Z,32.23
2023-06-10T11:15:43.050Z,31.96
2023-06-10T11:16:43.197Z,31.68
2023-06-10T11:17:43.076Z,31.64
2023-06-10T11:18:43.023Z,31.59
2023-06-10T11:19:44.525Z,31.73
2023-06-10T11:20:41.128Z,31.91
2023-06-10T11:21:43.233Z,31.85
2023-06-10T11:22:42.948Z,32.11
2023-06-10T11:23:43.119Z,32.07
2023-06-10T11:24:43.051Z,32.18
2023-06-10T11:25:42.927Z,32.47
2023-06-10T11:26:42.918Z,32.75
2023-06-10T11:27:42.934Z,32.72
2023-06-10T11:28:42.962Z,32.97
2023-06-10T11:29:42.928Z,33.13
2023-06-10T11:30:42.916Z,33.43
2023-06-10T11:31:43.012Z,33.51
2023-06-10T11:32:42.908Z,33.64
2023-06-10T11:33:42.903Z,33.46
2023-06-10T11:34:42.807Z,32.71
2023-06-10T11:35:42.957Z,32.21
2023-06-10T11:36:42.789Z,31.70
2023-06-10T11:37:42.811Z,31.94
2023-06-10T11:38:42.826Z,32.43
2023-06-10T11:39:42.728Z,32.77
2023-06-10T11:40:42.815Z,32.64
2023-06-10T11:41:42.731Z,32.55
2023-06-10T11:42:42.714Z,32.83
2023-06-10T11:43:42.728Z,33.15
2023-06-10T11:44:42.935Z,33.36
2023-06-10T11:45:42.724Z,33.59
2023-06-10T11:46:44.244Z,33.13
2023-06-10T11:47:42.715Z,33.13
2023-06-10T11:48:42.908Z,33.32
2023-06-10T11:49:44.988Z,33.47
2023-06-10T11:50:42.646Z,33.37
2023-06-10T11:51:42.133Z,33.42
2023-06-10T11:52:42.609Z,33.50
2023-06-10T11:53:42.604Z,33.77
2023-06-10T11:54:42.550Z,33.97
2023-06-10T11:55:42.557Z,33.92
2023-06-10T11:56:42.715Z,34.22
2023-06-10T11:57:42.505Z,34.72
2023-06-10T11:58:42.499Z,34.72
2023-06-10T11:59:42.601Z,34.45
2023-06-10T12:00:42.481Z,34.08
2023-06-10T12:01:44.356Z,34.06
2023-06-10T12:02:42.498Z,34.15
2023-06-10T12:03:42.578Z,34.21
2023-06-10T12:04:42.422Z,34.33
2023-06-10T12:05:42.626Z,34.09
2023-06-10T12:06:44.000Z,33.55
2023-06-10T12:07:42.393Z,32.56
2023-06-10T12:08:42.391Z,31.81
2023-06-10T12:09:42.388Z,31.17
2023-06-10T12:10:42.341Z,30.68
2023-06-10T12:11:42.322Z,30.24
2023-06-10T12:12:42.312Z,29.94
2023-06-10T12:13:42.308Z,30.47
2023-06-10T12:14:42.291Z,31.20
2023-06-10T12:15:42.280Z,31.74
2023-06-10T12:16:42.269Z,32.16
2023-06-10T12:17:42.292Z,32.60
2023-06-10T12:18:41.827Z,33.06
2023-06-10T12:19:42.232Z,33.55
2023-06-10T12:20:42.229Z,33.92
2023-06-10T12:21:42.211Z,34.02
2023-06-10T12:22:42.365Z,34.14
2023-06-10T12:23:42.228Z,34.15
2023-06-10T12:24:41.772Z,34.19
2023-06-10T12:25:42.180Z,34.24
2023-06-10T12:26:42.324Z,34.00
2023-06-10T12:27:42.180Z,33.80
2023-06-10T12:28:42.190Z,33.86
2023-06-10T12:29:42.084Z,33.88
2023-06-10T12:30:41.597Z,34.10
2023-06-10T12:31:42.117Z,34.10
2023-06-10T12:32:42.364Z,33.85
2023-06-10T12:33:42.053Z,33.36
2023-06-10T12:34:42.026Z,33.03
2023-06-10T12:35:42.065Z,33.22
2023-06-10T12:36:42.011Z,33.37
2023-06-10T12:37:43.310Z,33.22
2023-06-10T12:38:41.974Z,33.35
2023-06-10T12:39:41.984Z,33.72
2023-06-10T12:40:41.979Z,34.24
2023-06-10T12:41:41.947Z,34.70
2023-06-10T12:42:41.949Z,34.99
2023-06-10T12:43:41.904Z,34.99
2023-06-10T12:44:41.918Z,35.08
2023-06-10T12:45:41.914Z,35.19
2023-06-10T12:46:41.877Z,35.17
2023-06-10T12:47:41.867Z,34.78
2023-06-10T12:48:41.301Z,34.71
2023-06-10T12:49:41.841Z,34.32
2023-06-10T12:50:41.827Z,33.85
2023-06-10T12:51:41.834Z,33.35
2023-06-10T12:52:41.784Z,33.13